Time;durP1;ratioP1;P1;durP2;ratioP2;P2;SDS_P1;SDS_P2;PMS_P1;PMS_P2;Temp;Humidity;BMP_temperature;BMP_pressure;BME280_temperature;BME280_humidity;BME280_pressure;Samples;Min_cycle;Max_cycle;Signal;HPM_P1;HPM_P2
2021/07/05 00:02:07;;;;;;;7.90;5.28;;;;;;;;;;5134493;27;20023;-69
2021/07/05 00:04:33;;;;;;;7.10;4.07;;;;;;;;;;5115868;27;20125;-70
2021/07/05 00:06:59;;;;;;;8.52;4.53;;;;;;;;;;5134129;27;20106;-69
2021/07/05 00:09:26;;;;;;;8.13;4.70;;;;;;;;;;5115915;27;20415;-69
2021/07/05 00:11:52;;;;;;;6.97;4.47;;;;;;;;;;5115817;27;20027;-67
2021/07/05 00:14:18;;;;;;;7.95;4.85;;;;;;;;;;5115833;27;20033;-69
2021/07/05 00:16:44;;;;;;;10.52;5.15;;;;;;;;;;5115814;27;20029;-69
2021/07/05 00:19:11;;;;;;;7.90;4.53;;;;;;;;;;5134311;27;20102;-69
2021/07/05 00:21:37;;;;;;;5.70;4.57;;;;;;;;;;5115779;27;20054;-67
2021/07/05 00:24:04;;;;;;;11.48;4.93;;;;;;;;;;5134064;27;20027;-68
2021/07/05 00:26:30;;;;;;;6.38;4.68;;;;;;;;;;5115781;27;20357;-69
2021/07/05 00:28:56;;;;;;;6.82;5.07;;;;;;;;;;5134139;27;20495;-68
2021/07/05 00:31:23;;;;;;;11.07;5.28;;;;;;;;;;5115622;27;20382;-70
2021/07/05 00:33:49;;;;;;;13.45;5.15;;;;;;;;;;5134092;28;20047;-69
2021/07/05 00:36:15;;;;;;;10.98;4.40;;;;;;;;;;5115651;28;20073;-69
2021/07/05 00:38:42;;;;;;;8.85;4.57;;;;;;;;;;5111794;28;20055;-71
2021/07/05 00:41:08;;;;;;;5.10;4.40;;;;;;;;;;5113501;28;20030;-67
2021/07/05 00:43:34;;;;;;;6.47;4.60;;;;;;;;;;5113375;28;20106;-69
2021/07/05 00:46:01;;;;;;;8.95;5.38;;;;;;;;;;5113423;28;20119;-69
2021/07/05 00:48:27;;;;;;;8.32;4.78;;;;;;;;;;5111815;28;20030;-69
2021/07/05 00:50:53;;;;;;;7.07;4.63;;;;;;;;;;5112041;28;20024;-68
2021/07/05 00:53:20;;;;;;;9.43;5.00;;;;;;;;;;5113356;28;20077;-69
2021/07/05 00:55:46;;;;;;;9.35;4.53;;;;;;;;;;5114569;28;20019;-69
2021/07/05 00:58:12;;;;;;;10.65;5.30;;;;;;;;;;5116255;28;20555;-68
2021/07/05 01:00:39;;;;;;;10.48;4.88;;;;;;;;;;5117446;28;20483;-69
2021/07/05 01:03:05;;;;;;;8.10;4.70;;;;;;;;;;5117005;28;20452;-70
2021/07/05 01:05:32;;;;;;;12.70;5.60;;;;;;;;;;5117341;28;20111;-68
2021/07/05 01:07:59;;;;;;;9.50;5.28;;;;;;;;;;5117602;28;20107;-69
2021/07/05 01:10:25;;;;;;;10.10;5.30;;;;;;;;;;5117256;28;20047;-68
2021/07/05 01:12:52;;;;;;;9.60;5.10;;;;;;;;;;5117221;28;20058;-68
2021/07/05 01:15:20;;;;;;;8.18;5.18;;;;;;;;;;5115855;28;20136;-71
2021/07/05 01:17:47;;;;;;;11.27;5.30;;;;;;;;;;5117134;28;20019;-69
2021/07/05 01:20:15;;;;;;;8.32;4.88;;;;;;;;;;5115747;28;20032;-69
2021/07/05 01:22:41;;;;;;;15.32;5.45;;;;;;;;;;5116933;28;20024;-69
2021/07/05 01:25:09;;;;;;;7.60;4.93;;;;;;;;;;5116969;28;20111;-69
2021/07/05 01:27:36;;;;;;;11.55;5.25;;;;;;;;;;5116982;28;20102;-68
2021/07/05 01:30:02;;;;;;;7.75;5.03;;;;;;;;;;5116886;28;20062;-69
2021/07/05 01:32:28;;;;;;;5.95;5.20;;;;;;;;;;5116841;27;20020;-67
2021/07/05 01:34:54;;;;;;;8.40;5.30;;;;;;;;;;5117045;28;20034;-71
2021/07/05 01:37:20;;;;;;;7.30;5.22;;;;;;;;;;5115077;28;20062;-68
2021/07/05 01:39:47;;;;;;;8.95;5.30;;;;;;;;;;5116686;28;20019;-68
2021/07/05 01:42:13;;;;;;;7.85;4.68;;;;;;;;;;5116692;28;20054;-68
2021/07/05 01:44:39;;;;;;;10.35;4.88;;;;;;;;;;5115229;28;20023;-69
2021/07/05 01:47:06;;;;;;;8.52;5.13;;;;;;;;;;5116540;27;20111;-69
2021/07/05 01:49:32;;;;;;;8.63;5.45;;;;;;;;;;5116564;28;20091;-69
2021/07/05 01:51:58;;;;;;;7.53;4.80;;;;;;;;;;5116168;28;20433;-70
2021/07/05 01:54:24;;;;;;;8.57;6.00;;;;;;;;;;5115107;28;20050;-68
2021/07/05 01:56:51;;;;;;;9.43;5.25;;;;;;;;;;5115063;28;20372;-68
2021/07/05 01:59:17;;;;;;;6.25;5.55;;;;;;;;;;5116405;28;20138;-68
2021/07/05 02:01:43;;;;;;;8.85;5.03;;;;;;;;;;5115196;28;20031;-68
2021/07/05 02:04:09;;;;;;;9.15;5.60;;;;;;;;;;5116160;28;20111;-70
2021/07/05 02:06:36;;;;;;;9.77;5.60;;;;;;;;;;5115488;28;20099;-70
2021/07/05 02:09:06;;;;;;;7.70;4.78;;;;;;;;;;5115982;28;20039;-69
2021/07/05 02:11:32;;;;;;;9.20;4.93;;;;;;;;;;5116039;28;20035;-68
2021/07/05 02:13:58;;;;;;;11.48;5.53;;;;;;;;;;5115809;28;20500;-68
2021/07/05 02:16:24;;;;;;;15.50;6.07;;;;;;;;;;5115193;28;20047;-67
2021/07/05 02:18:51;;;;;;;7.05;4.85;;;;;;;;;;5118653;28;20471;-67
2021/07/05 02:21:17;;;;;;;9.18;5.05;;;;;;;;;;5118383;28;20549;-69
2021/07/05 02:23:43;;;;;;;7.18;5.55;;;;;;;;;;5118757;28;20108;-68
2021/07/05 02:26:09;;;;;;;11.55;6.43;;;;;;;;;;5118534;28;20070;-67
2021/07/05 02:28:36;;;;;;;9.30;6.00;;;;;;;;;;5118697;28;20020;-67
2021/07/05 02:31:04;;;;;;;7.53;5.63;;;;;;;;;;5118307;28;20072;-67
2021/07/05 02:33:31;;;;;;;5.93;5.35;;;;;;;;;;5119189;28;20414;-70
2021/07/05 02:35:59;;;;;;;12.73;6.22;;;;;;;;;;5117069;28;20020;-67
2021/07/05 02:38:25;;;;;;;6.93;5.20;;;;;;;;;;5128648;27;20051;-69
2021/07/05 02:40:54;;;;;;;7.85;5.85;;;;;;;;;;5136114;27;20181;-69
2021/07/05 02:43:21;;;;;;;12.48;5.90;;;;;;;;;;5135968;27;20027;-68
2021/07/05 02:45:48;;;;;;;11.23;5.80;;;;;;;;;;5117512;27;20490;-69
2021/07/05 02:48:16;;;;;;;10.93;5.43;;;;;;;;;;5135973;27;20458;-69
2021/07/05 02:50:43;;;;;;;7.90;6.22;;;;;;;;;;5135861;27;20019;-71
2021/07/05 02:53:10;;;;;;;10.27;5.78;;;;;;;;;;5135838;27;20106;-67
2021/07/05 02:55:37;;;;;;;7.53;5.47;;;;;;;;;;5117307;27;20109;-70
2021/07/05 02:58:04;;;;;;;8.73;6.07;;;;;;;;;;5135670;27;20023;-67
2021/07/05 03:00:32;;;;;;;10.20;6.30;;;;;;;;;;5135672;27;20543;-71
2021/07/05 03:02:58;;;;;;;13.93;6.88;;;;;;;;;;5117097;27;20031;-69
2021/07/05 03:05:26;;;;;;;12.70;7.10;;;;;;;;;;5135308;27;20152;-69
2021/07/05 03:07:52;;;;;;;12.07;7.28;;;;;;;;;;5135231;27;20122;-69
2021/07/05 03:10:20;;;;;;;10.25;7.30;;;;;;;;;;5135291;27;20019;-68
2021/07/05 03:12:47;;;;;;;12.77;7.07;;;;;;;;;;5116984;27;20405;-70
2021/07/05 03:15:14;;;;;;;16.38;7.05;;;;;;;;;;5135342;27;20132;-70
2021/07/05 03:17:41;;;;;;;17.77;7.43;;;;;;;;;;5116483;27;20020;-69
2021/07/05 03:20:09;;;;;;;16.08;8.30;;;;;;;;;;5134628;27;20071;-68
2021/07/05 03:22:35;;;;;;;19.38;8.23;;;;;;;;;;5135218;27;20024;-69
2021/07/05 03:25:02;;;;;;;15.23;7.20;;;;;;;;;;5116651;27;20155;-69
2021/07/05 03:27:29;;;;;;;12.45;8.23;;;;;;;;;;5116718;27;20024;-68
2021/07/05 03:29:55;;;;;;;28.52;9.30;;;;;;;;;;5116616;27;20015;-68
2021/07/05 03:32:22;;;;;;;14.52;8.73;;;;;;;;;;5135040;27;20102;-70
2021/07/05 03:34:48;;;;;;;14.43;8.38;;;;;;;;;;5116539;27;20110;-69
2021/07/05 03:37:15;;;;;;;11.38;7.88;;;;;;;;;;5134686;27;20126;-69
2021/07/05 03:39:41;;;;;;;14.65;8.00;;;;;;;;;;5135152;27;20495;-69
2021/07/05 03:42:07;;;;;;;9.25;7.38;;;;;;;;;;5134869;27;20059;-69
2021/07/05 03:44:34;;;;;;;8.63;7.50;;;;;;;;;;5116303;27;20045;-69
2021/07/05 03:47:00;;;;;;;31.17;13.98;;;;;;;;;;5135046;27;20106;-71
2021/07/05 03:49:26;;;;;;;10.32;7.85;;;;;;;;;;5135007;27;20110;-70
2021/07/05 03:51:52;;;;;;;13.70;8.18;;;;;;;;;;5134683;27;20499;-69
2021/07/05 03:54:19;;;;;;;10.10;7.32;;;;;;;;;;5134644;27;20047;-69
2021/07/05 03:56:45;;;;;;;18.13;8.48;;;;;;;;;;5134576;27;20459;-69
2021/07/05 03:59:12;;;;;;;15.32;9.27;;;;;;;;;;5134629;27;20051;-69
2021/07/05 04:01:38;;;;;;;17.27;9.45;;;;;;;;;;5134508;27;20107;-68
2021/07/05 04:04:05;;;;;;;10.45;8.07;;;;;;;;;;5134397;27;20055;-67
2021/07/05 04:06:31;;;;;;;12.07;8.25;;;;;;;;;;5134721;27;20031;-68
2021/07/05 04:08:59;;;;;;;8.68;7.20;;;;;;;;;;5115909;27;20345;-67
2021/07/05 04:11:26;;;;;;;13.40;7.20;;;;;;;;;;5134282;27;20019;-68
2021/07/05 04:13:52;;;;;;;12.18;7.30;;;;;;;;;;5134277;27;20108;-67
2021/07/05 04:16:18;;;;;;;13.95;7.30;;;;;;;;;;5115870;27;20348;-68
2021/07/05 04:18:44;;;;;;;12.43;7.85;;;;;;;;;;5115819;27;20114;-70
2021/07/05 04:21:10;;;;;;;13.52;8.32;;;;;;;;;;5134240;27;20102;-69
2021/07/05 04:23:37;;;;;;;17.38;8.23;;;;;;;;;;5134151;27;20539;-69
2021/07/05 04:26:03;;;;;;;10.98;7.88;;;;;;;;;;5134223;27;20031;-69
2021/07/05 04:28:30;;;;;;;12.15;7.70;;;;;;;;;;5134148;27;20106;-69
2021/07/05 04:30:57;;;;;;;12.25;8.20;;;;;;;;;;5133816;27;20024;-70
2021/07/05 04:33:24;;;;;;;12.73;8.32;;;;;;;;;;5115672;28;20038;-68
2021/07/05 04:35:50;;;;;;;13.05;8.65;;;;;;;;;;5134064;28;20459;-69
2021/07/05 04:38:16;;;;;;;10.20;8.00;;;;;;;;;;5133587;28;20046;-68
2021/07/05 04:40:43;;;;;;;15.15;8.15;;;;;;;;;;5134003;28;20022;-69
2021/07/05 04:43:10;;;;;;;10.75;8.30;;;;;;;;;;5134002;28;20019;-69
2021/07/05 04:45:38;;;;;;;9.38;8.27;;;;;;;;;;5133943;28;20151;-69
2021/07/05 04:48:06;;;;;;;14.75;9.90;;;;;;;;;;5115473;28;20498;-69
2021/07/05 04:50:33;;;;;;;10.82;7.97;;;;;;;;;;5133968;28;20023;-71
2021/07/05 04:53:00;;;;;;;14.35;8.82;;;;;;;;;;5133914;28;20137;-70
2021/07/05 04:55:27;;;;;;;12.85;9.10;;;;;;;;;;5133857;28;20124;-70
2021/07/05 04:57:53;;;;;;;13.07;9.23;;;;;;;;;;5133865;28;20024;-70
2021/07/05 05:00:21;;;;;;;14.50;9.18;;;;;;;;;;5133900;28;20049;-68
2021/07/05 05:02:47;;;;;;;12.88;9.23;;;;;;;;;;5115293;28;20011;-68
2021/07/05 05:05:13;;;;;;;13.55;9.45;;;;;;;;;;5115329;28;20463;-67
2021/07/05 05:07:40;;;;;;;16.83;8.95;;;;;;;;;;5133725;28;20157;-68
2021/07/05 05:10:08;;;;;;;12.15;8.88;;;;;;;;;;5133784;28;20031;-70
2021/07/05 05:12:34;;;;;;;13.60;8.50;;;;;;;;;;5133512;28;20055;-69
2021/07/05 05:15:01;;;;;;;16.02;9.75;;;;;;;;;;5133660;28;20058;-69
2021/07/05 05:17:27;;;;;;;13.25;9.43;;;;;;;;;;5133402;28;20050;-70
2021/07/05 05:19:54;;;;;;;9.20;8.30;;;;;;;;;;5133978;28;20098;-71
2021/07/05 05:22:20;;;;;;;11.55;7.05;;;;;;;;;;5133608;28;20094;-68
2021/07/05 05:24:46;;;;;;;10.68;8.13;;;;;;;;;;5133497;28;20027;-69
2021/07/05 05:27:12;;;;;;;9.02;7.95;;;;;;;;;;5115146;28;20063;-69
2021/07/05 05:29:39;;;;;;;16.73;7.45;;;;;;;;;;5133580;28;20023;-70
2021/07/05 05:32:06;;;;;;;11.90;8.60;;;;;;;;;;5133402;28;20447;-69
2021/07/05 05:34:32;;;;;;;11.40;9.25;;;;;;;;;;5133407;28;20359;-70
2021/07/05 05:36:58;;;;;;;14.43;8.02;;;;;;;;;;5114775;28;20087;-69
2021/07/05 05:39:24;;;;;;;16.83;8.43;;;;;;;;;;5133387;28;20050;-68
2021/07/05 05:41:51;;;;;;;15.18;7.68;;;;;;;;;;5115694;27;20027;-69
2021/07/05 05:44:17;;;;;;;12.00;7.88;;;;;;;;;;5137069;27;20024;-70
2021/07/05 05:46:43;;;;;;;9.85;7.28;;;;;;;;;;5136813;27;20083;-69
2021/07/05 05:49:10;;;;;;;8.52;6.90;;;;;;;;;;5136707;27;20055;-70
2021/07/05 05:51:36;;;;;;;8.13;6.10;;;;;;;;;;5136648;27;20102;-69
2021/07/05 05:54:07;;;;;;;8.32;6.32;;;;;;;;;;5136798;27;20034;-72
2021/07/05 05:56:34;;;;;;;11.95;6.35;;;;;;;;;;5136046;27;20484;-68
2021/07/05 05:59:03;;;;;;;9.27;6.18;;;;;;;;;;5135644;27;20019;-70
2021/07/05 06:01:30;;;;;;;11.75;6.25;;;;;;;;;;5118371;27;20023;-67
2021/07/05 06:03:56;;;;;;;7.30;6.05;;;;;;;;;;5136696;27;20023;-70
2021/07/05 06:06:23;;;;;;;8.20;6.15;;;;;;;;;;5136763;27;20142;-70
2021/07/05 06:08:49;;;;;;;6.55;5.28;;;;;;;;;;5136650;27;20061;-66
2021/07/05 06:11:15;;;;;;;9.07;5.88;;;;;;;;;;5134641;27;20030;-67
2021/07/05 06:13:41;;;;;;;10.23;5.82;;;;;;;;;;5116140;27;20042;-67
2021/07/05 06:16:08;;;;;;;12.27;6.35;;;;;;;;;;5134210;27;20495;-70
2021/07/05 06:18:34;;;;;;;8.55;6.20;;;;;;;;;;5115899;27;20471;-68
2021/07/05 06:21:00;;;;;;;11.82;6.38;;;;;;;;;;5134174;27;20098;-69
2021/07/05 06:23:28;;;;;;;15.75;5.80;;;;;;;;;;5135783;27;20352;-68
2021/07/05 06:25:55;;;;;;;10.75;5.93;;;;;;;;;;5117640;27;20444;-68
2021/07/05 06:28:21;;;;;;;12.38;5.82;;;;;;;;;;5130022;27;20065;-68
2021/07/05 06:30:48;;;;;;;11.02;5.80;;;;;;;;;;5136335;27;20019;-69
2021/07/05 06:33:15;;;;;;;9.68;5.45;;;;;;;;;;5117512;27;20507;-67
2021/07/05 06:35:42;;;;;;;10.05;5.13;;;;;;;;;;5136074;27;20061;-69
2021/07/05 06:38:09;;;;;;;12.52;5.82;;;;;;;;;;5136028;27;20050;-69
2021/07/05 06:40:35;;;;;;;13.65;6.05;;;;;;;;;;5136132;27;20047;-68
2021/07/05 06:43:02;;;;;;;11.10;5.93;;;;;;;;;;5117560;27;20058;-68
2021/07/05 06:45:28;;;;;;;13.52;5.90;;;;;;;;;;5135980;27;20023;-70
2021/07/05 06:47:54;;;;;;;12.68;5.80;;;;;;;;;;5135940;27;20024;-71
2021/07/05 06:50:21;;;;;;;12.15;7.18;;;;;;;;;;5135957;27;20022;-69
2021/07/05 06:52:47;;;;;;;10.10;6.38;;;;;;;;;;5135614;27;20019;-69
2021/07/05 06:55:13;;;;;;;8.57;6.07;;;;;;;;;;5135782;27;20023;-68
2021/07/05 06:57:41;;;;;;;10.25;5.68;;;;;;;;;;5117378;27;20023;-68
2021/07/05 07:00:10;;;;;;;11.07;6.32;;;;;;;;;;5117206;27;20054;-68
2021/07/05 07:02:37;;;;;;;12.90;6.60;;;;;;;;;;5135149;27;20026;-69
2021/07/05 07:05:05;;;;;;;12.63;7.38;;;;;;;;;;5134576;27;20068;-67
2021/07/05 07:07:31;;;;;;;15.00;8.52;;;;;;;;;;5134998;27;20109;-69
2021/07/05 07:09:57;;;;;;;10.93;9.00;;;;;;;;;;5134752;27;20508;-65
2021/07/05 07:12:24;;;;;;;9.82;8.30;;;;;;;;;;5135695;27;20027;-67
2021/07/05 07:14:50;;;;;;;10.30;8.55;;;;;;;;;;5135379;27;20023;-66
2021/07/05 07:17:24;;;;;;;16.20;8.82;;;;;;;;;;5135277;27;20027;-68
2021/07/05 07:19:51;;;;;;;14.00;9.02;;;;;;;;;;5116962;27;20456;-69
2021/07/05 07:22:19;;;;;;;10.20;7.97;;;;;;;;;;5116826;27;20352;-68
2021/07/05 07:24:45;;;;;;;9.35;7.43;;;;;;;;;;5116414;27;20446;-72
2021/07/05 07:27:11;;;;;;;9.52;7.13;;;;;;;;;;5116645;27;20197;-68
2021/07/05 07:29:37;;;;;;;10.15;7.53;;;;;;;;;;5134865;27;20034;-70
2021/07/05 07:32:04;;;;;;;10.95;7.72;;;;;;;;;;5116363;27;20041;-68
2021/07/05 07:37:34;;;;;;;15.57;7.68;;;;;;;;;;5134570;27;20054;-68
2021/07/05 07:40:10;;;;;;;15.75;8.07;;;;;;;;;;5116424;27;20117;-69
2021/07/05 07:42:36;;;;;;;12.27;8.45;;;;;;;;;;5134838;27;20135;-69
2021/07/05 07:45:03;;;;;;;13.02;8.90;;;;;;;;;;5134688;27;20031;-69
2021/07/05 07:47:29;;;;;;;12.88;9.05;;;;;;;;;;5134642;27;20434;-70
2021/07/05 07:49:58;;;;;;;11.63;8.25;;;;;;;;;;5134422;27;20170;-70
2021/07/05 07:52:26;;;;;;;12.10;8.30;;;;;;;;;;5116265;27;20054;-68
2021/07/05 07:54:52;;;;;;;10.00;7.75;;;;;;;;;;5116084;27;20058;-66
2021/07/05 07:57:19;;;;;;;13.70;8.30;;;;;;;;;;5134882;27;20145;-68
2021/07/05 07:59:46;;;;;;;15.55;8.18;;;;;;;;;;5134526;27;20043;-68
2021/07/05 08:02:12;;;;;;;9.80;8.50;;;;;;;;;;5133822;27;20024;-67
2021/07/05 08:04:39;;;;;;;13.85;8.25;;;;;;;;;;5132369;27;20468;-69
2021/07/05 08:07:05;;;;;;;13.43;8.73;;;;;;;;;;5134172;27;20524;-68
2021/07/05 08:09:31;;;;;;;10.25;9.05;;;;;;;;;;5134305;27;20513;-69
2021/07/05 08:11:58;;;;;;;13.95;9.02;;;;;;;;;;5134577;27;20031;-70
2021/07/05 08:14:24;;;;;;;12.75;8.50;;;;;;;;;;5134323;27;20126;-68
2021/07/05 08:16:50;;;;;;;13.77;8.98;;;;;;;;;;5115795;27;20022;-68
2021/07/05 08:19:17;;;;;;;14.07;8.93;;;;;;;;;;5134070;27;20019;-67
2021/07/05 08:21:43;;;;;;;12.63;8.75;;;;;;;;;;5115741;27;20110;-66
2021/07/05 08:24:09;;;;;;;8.68;7.75;;;;;;;;;;5115681;27;20031;-67
2021/07/05 08:26:35;;;;;;;8.95;7.20;;;;;;;;;;5133773;27;20106;-68
2021/07/05 08:29:02;;;;;;;12.90;7.68;;;;;;;;;;5133848;27;20483;-70
2021/07/05 08:31:28;;;;;;;10.60;7.05;;;;;;;;;;5134126;27;20056;-73
2021/07/05 08:33:59;;;;;;;7.78;6.53;;;;;;;;;;5115628;27;20030;-70
2021/07/05 08:36:25;;;;;;;9.95;7.75;;;;;;;;;;5115310;28;20024;-70
2021/07/05 08:38:52;;;;;;;15.90;8.98;;;;;;;;;;5111755;28;20099;-70
2021/07/05 08:41:18;;;;;;;13.55;7.88;;;;;;;;;;5113312;28;20019;-69
2021/07/05 08:43:45;;;;;;;11.30;8.07;;;;;;;;;;5112025;28;20539;-69
2021/07/05 08:46:13;;;;;;;15.02;7.65;;;;;;;;;;5113357;28;20028;-70
2021/07/05 08:48:40;;;;;;;12.93;7.93;;;;;;;;;;5112002;28;20051;-70
2021/07/05 08:51:10;;;;;;;9.57;7.00;;;;;;;;;;5113416;28;20028;-69
2021/07/05 08:53:38;;;;;;;7.60;5.82;;;;;;;;;;5113076;28;20030;-70
2021/07/05 08:56:04;;;;;;;9.15;5.82;;;;;;;;;;5098349;28;20162;-70
2021/07/05 08:58:31;;;;;;;9.20;5.68;;;;;;;;;;5092933;28;20055;-68
2021/07/05 09:00:57;;;;;;;13.07;7.20;;;;;;;;;;5091602;28;20036;-70
2021/07/05 09:03:25;;;;;;;11.25;8.25;;;;;;;;;;5092414;28;20032;-69
2021/07/05 09:06:10;;;;;;;9.25;7.53;;;;;;;;;;5090554;28;20062;-69
2021/07/05 09:08:39;;;;;;;13.98;7.97;;;;;;;;;;5091493;28;20055;-67
2021/07/05 09:11:09;;;;;;;15.57;8.00;;;;;;;;;;5092768;28;20020;-67
2021/07/05 09:13:46;;;;;;;12.52;7.65;;;;;;;;;;5092420;28;20550;-71
2021/07/05 09:16:12;;;;;;;11.13;7.78;;;;;;;;;;5091845;28;20050;-72
2021/07/05 09:18:44;;;;;;;11.77;7.05;;;;;;;;;;5095319;28;20024;-69
2021/07/05 09:21:10;;;;;;;6.80;6.00;;;;;;;;;;5096755;28;20069;-69
2021/07/05 09:23:36;;;;;;;8.15;6.63;;;;;;;;;;5095183;28;20024;-67
2021/07/05 09:26:03;;;;;;;10.38;6.50;;;;;;;;;;5096599;28;20429;-70
2021/07/05 09:28:37;;;;;;;6.57;5.63;;;;;;;;;;5095242;28;20024;-67
2021/07/05 09:31:03;;;;;;;8.77;5.90;;;;;;;;;;5095204;28;20115;-71
2021/07/05 09:33:30;;;;;;;9.00;6.35;;;;;;;;;;5096179;28;20111;-68
2021/07/05 09:35:58;;;;;;;7.32;5.50;;;;;;;;;;5096363;28;20473;-69
2021/07/05 09:38:50;;;;;;;8.95;5.32;;;;;;;;;;5121253;27;20058;-67
2021/07/05 09:41:21;;;;;;;8.95;5.25;;;;;;;;;;5115151;27;20023;-70
2021/07/05 09:43:54;;;;;;;11.07;5.70;;;;;;;;;;5137053;27;20030;-71
2021/07/05 09:46:34;;;;;;;7.35;5.50;;;;;;;;;;5118638;27;20482;-70
2021/07/05 09:49:08;;;;;;;8.07;5.55;;;;;;;;;;5118671;27;20019;-67
2021/07/05 09:51:35;;;;;;;10.70;4.80;;;;;;;;;;5137022;27;20038;-70
2021/07/05 09:54:01;;;;;;;7.13;5.03;;;;;;;;;;5136713;27;20463;-69
2021/07/05 09:56:29;;;;;;;8.82;5.20;;;;;;;;;;5118434;27;20068;-70
2021/07/05 09:58:57;;;;;;;5.35;4.72;;;;;;;;;;5136882;27;20102;-69
2021/07/05 10:01:37;;;;;;;9.88;4.80;;;;;;;;;;5136551;27;20076;-69
2021/07/05 10:04:07;;;;;;;7.70;4.88;;;;;;;;;;5118113;27;20087;-70
2021/07/05 10:06:47;;;;;;;7.75;5.20;;;;;;;;;;5136743;27;20104;-70
2021/07/05 10:09:18;;;;;;;6.22;4.78;;;;;;;;;;5118272;27;20375;-72
2021/07/05 10:11:45;;;;;;;8.60;4.80;;;;;;;;;;5136908;27;20021;-70
2021/07/05 10:14:13;;;;;;;7.90;5.43;;;;;;;;;;5136613;27;20048;-70
2021/07/05 10:16:39;;;;;;;11.60;5.10;;;;;;;;;;5117528;27;20110;-69
2021/07/05 10:19:07;;;;;;;6.07;4.60;;;;;;;;;;5135769;27;20102;-69
2021/07/05 10:21:34;;;;;;;7.32;4.38;;;;;;;;;;5135689;27;20031;-67
2021/07/05 10:24:00;;;;;;;7.72;5.22;;;;;;;;;;5117731;27;20031;-70
2021/07/05 10:26:27;;;;;;;5.28;4.43;;;;;;;;;;5117986;27;20119;-69
2021/07/05 10:28:54;;;;;;;6.00;4.70;;;;;;;;;;5135992;27;20544;-70
2021/07/05 10:31:21;;;;;;;4.75;4.28;;;;;;;;;;5136236;27;20050;-71
2021/07/05 10:33:47;;;;;;;6.13;4.85;;;;;;;;;;5117895;27;20023;-67
2021/07/05 10:36:13;;;;;;;5.50;4.25;;;;;;;;;;5117677;27;20492;-67
2021/07/05 10:38:49;;;;;;;9.15;5.00;;;;;;;;;;5117282;27;20051;-68
2021/07/05 10:41:16;;;;;;;5.85;4.68;;;;;;;;;;5136052;27;20019;-67
2021/07/05 10:44:04;;;;;;;6.07;4.78;;;;;;;;;;5135947;27;20033;-69
2021/07/05 10:46:39;;;;;;;5.72;4.30;;;;;;;;;;5135987;27;20057;-69
2021/07/05 10:49:10;;;;;;;4.18;3.78;;;;;;;;;;5135882;27;20484;-69
2021/07/05 10:51:43;;;;;;;7.60;4.90;;;;;;;;;;5136121;27;20031;-67
2021/07/05 10:54:10;;;;;;;6.25;4.40;;;;;;;;;;5121561;27;20031;-67
2021/07/05 10:56:44;;;;;;;8.25;4.68;;;;;;;;;;5117339;27;20049;-69
2021/07/05 10:59:13;;;;;;;5.45;4.15;;;;;;;;;;5135836;27;20031;-68
2021/07/05 11:01:44;;;;;;;7.03;4.75;;;;;;;;;;5135776;27;20022;-69
2021/07/05 11:04:20;;;;;;;5.33;4.83;;;;;;;;;;5135358;27;20611;-67
2021/07/05 11:06:54;;;;;;;5.28;4.78;;;;;;;;;;5117174;27;20502;-69
2021/07/05 11:09:22;;;;;;;7.38;5.03;;;;;;;;;;5117261;27;20103;-70
2021/07/05 11:11:51;;;;;;;8.90;4.90;;;;;;;;;;5114657;27;20042;-68
2021/07/05 11:14:37;;;;;;;6.28;4.43;;;;;;;;;;5134924;27;20452;-66
2021/07/05 11:17:07;;;;;;;9.18;5.00;;;;;;;;;;5135321;27;20019;-66
2021/07/05 11:19:33;;;;;;;4.97;4.43;;;;;;;;;;5116829;27;20472;-68
2021/07/05 11:22:07;;;;;;;7.18;4.93;;;;;;;;;;5135147;27;20043;-68
2021/07/05 11:24:46;;;;;;;5.40;4.30;;;;;;;;;;5135044;27;20214;-69
2021/07/05 11:27:26;;;;;;;8.88;4.85;;;;;;;;;;5135122;27;20030;-67
2021/07/05 11:29:52;;;;;;;5.40;4.50;;;;;;;;;;5135014;27;20092;-68
2021/07/05 11:32:35;;;;;;;5.40;4.13;;;;;;;;;;5135044;27;20480;-68
2021/07/05 11:35:01;;;;;;;4.75;4.35;;;;;;;;;;5135003;27;20110;-68
2021/07/05 11:37:30;;;;;;;6.45;4.70;;;;;;;;;;5134935;27;20537;-66
2021/07/05 11:39:57;;;;;;;8.73;5.00;;;;;;;;;;5134058;27;20025;-68
2021/07/05 11:42:32;;;;;;;5.80;4.72;;;;;;;;;;5134946;27;20290;-69
2021/07/05 11:44:58;;;;;;;5.95;4.55;;;;;;;;;;5135013;27;20156;-67
2021/07/05 11:47:38;;;;;;;5.07;4.22;;;;;;;;;;5134688;27;20047;-67
2021/07/05 11:50:27;;;;;;;6.57;4.30;;;;;;;;;;5116237;27;20480;-69
2021/07/05 11:52:56;;;;;;;6.10;4.53;;;;;;;;;;5116250;27;20020;-68
2021/07/05 11:55:24;;;;;;;4.60;4.20;;;;;;;;;;5134310;27;20023;-69
2021/07/05 11:58:07;;;;;;;5.07;4.53;;;;;;;;;;5115944;27;20027;-68
2021/07/05 12:00:37;;;;;;;4.43;4.03;;;;;;;;;;5134450;27;20023;-68
2021/07/05 12:03:14;;;;;;;6.15;4.38;;;;;;;;;;5134214;27;20471;-66
2021/07/05 12:05:44;;;;;;;4.85;4.35;;;;;;;;;;5116033;27;20062;-67
2021/07/05 12:08:19;;;;;;;5.53;4.50;;;;;;;;;;5134208;27;20071;-67
2021/07/05 12:11:06;;;;;;;8.43;4.40;;;;;;;;;;5132568;27;20023;-69
2021/07/05 12:13:32;;;;;;;8.07;4.18;;;;;;;;;;5134154;27;20050;-69
2021/07/05 12:16:00;;;;;;;5.80;3.83;;;;;;;;;;5134062;27;20095;-67
2021/07/05 12:18:26;;;;;;;8.20;3.95;;;;;;;;;;5132731;27;20045;-73
2021/07/05 12:20:57;;;;;;;4.07;3.35;;;;;;;;;;5115186;27;20026;-68
2021/07/05 12:23:23;;;;;;;6.30;3.72;;;;;;;;;;5133685;27;20026;-70
2021/07/05 12:25:49;;;;;;;6.22;3.65;;;;;;;;;;5133910;27;20023;-68
2021/07/05 12:28:16;;;;;;;8.10;3.47;;;;;;;;;;5133617;27;20114;-66
2021/07/05 12:30:46;;;;;;;4.85;4.35;;;;;;;;;;5133750;27;20011;-68
2021/07/05 12:33:12;;;;;;;7.20;4.40;;;;;;;;;;5115252;27;20055;-68
2021/07/05 12:35:39;;;;;;;5.22;3.78;;;;;;;;;;5133721;27;20102;-70
2021/07/05 12:38:12;;;;;;;6.80;3.85;;;;;;;;;;5133052;27;20050;-66
2021/07/05 12:40:39;;;;;;;4.10;3.80;;;;;;;;;;5133898;28;20034;-68
2021/07/05 12:43:06;;;;;;;4.60;4.00;;;;;;;;;;5133702;28;20169;-67
2021/07/05 12:45:35;;;;;;;6.55;3.70;;;;;;;;;;5133201;28;20024;-69
2021/07/05 12:48:04;;;;;;;8.75;4.38;;;;;;;;;;5131120;28;20015;-68
2021/07/05 12:50:36;;;;;;;5.07;3.75;;;;;;;;;;5133721;27;20430;-66
2021/07/05 12:53:06;;;;;;;3.85;3.47;;;;;;;;;;5136257;27;20015;-67
2021/07/05 12:55:33;;;;;;;7.87;4.07;;;;;;;;;;5136562;27;20376;-67
2021/07/05 12:57:59;;;;;;;4.35;3.55;;;;;;;;;;5117773;27;20247;-69
2021/07/05 13:00:26;;;;;;;6.43;3.95;;;;;;;;;;5138121;27;20031;-67
2021/07/05 13:02:53;;;;;;;3.92;3.47;;;;;;;;;;5138019;27;20098;-68
2021/07/05 13:05:21;;;;;;;5.10;3.50;;;;;;;;;;5137833;27;20030;-68
2021/07/05 13:07:55;;;;;;;4.05;3.65;;;;;;;;;;5119276;27;20054;-67
2021/07/05 13:10:24;;;;;;;8.48;3.97;;;;;;;;;;5137839;27;20068;-68
2021/07/05 13:12:54;;;;;;;5.53;3.83;;;;;;;;;;5137830;27;20580;-68
2021/07/05 13:15:20;;;;;;;19.73;4.50;;;;;;;;;;5137428;27;20442;-68
2021/07/05 13:17:46;;;;;;;7.32;4.65;;;;;;;;;;5137430;27;20027;-66
2021/07/05 13:20:15;;;;;;;4.80;3.83;;;;;;;;;;5137706;27;20375;-69
2021/07/05 13:22:52;;;;;;;5.93;3.97;;;;;;;;;;5137913;27;20054;-68
2021/07/05 13:25:18;;;;;;;6.60;4.32;;;;;;;;;;5137541;27;20034;-70
2021/07/05 13:27:44;;;;;;;4.03;3.63;;;;;;;;;;5137517;27;20027;-71
2021/07/05 13:30:11;;;;;;;4.82;3.97;;;;;;;;;;5137469;27;20366;-71
2021/07/05 13:32:49;;;;;;;5.18;4.65;;;;;;;;;;5119001;27;20039;-69
2021/07/05 13:35:15;;;;;;;5.90;4.10;;;;;;;;;;5137354;27;20035;-71
2021/07/05 13:37:46;;;;;;;6.25;4.40;;;;;;;;;;5137037;27;20047;-69
2021/07/05 13:40:14;;;;;;;5.93;4.38;;;;;;;;;;5137343;27;20107;-68
2021/07/05 13:42:41;;;;;;;8.07;4.93;;;;;;;;;;5137002;27;20532;-71
2021/07/05 13:45:16;;;;;;;5.35;4.32;;;;;;;;;;5136113;27;20072;-71
2021/07/05 13:47:47;;;;;;;11.77;4.07;;;;;;;;;;5137240;27;20061;-68
2021/07/05 13:50:15;;;;;;;5.03;4.27;;;;;;;;;;5137180;27;20054;-73
2021/07/05 13:52:45;;;;;;;4.68;4.30;;;;;;;;;;5137018;27;20311;-74
2021/07/05 13:55:25;;;;;;;6.55;4.13;;;;;;;;;;5137004;27;20464;-71
2021/07/05 13:57:51;;;;;;;4.35;4.05;;;;;;;;;;5137103;27;20023;-71
2021/07/05 14:00:18;;;;;;;4.53;4.07;;;;;;;;;;5117929;27;20092;-69
2021/07/05 14:02:44;;;;;;;5.60;4.28;;;;;;;;;;5134299;27;20024;-71
2021/07/05 14:05:21;;;;;;;7.47;4.30;;;;;;;;;;5136732;27;20023;-69
2021/07/05 14:07:47;;;;;;;4.75;4.35;;;;;;;;;;5118092;27;20019;-70
2021/07/05 14:10:14;;;;;;;6.93;4.45;;;;;;;;;;5117686;27;20074;-70
2021/07/05 14:12:41;;;;;;;7.35;4.15;;;;;;;;;;5136227;27;20027;-69
2021/07/05 14:15:08;;;;;;;4.57;4.03;;;;;;;;;;5136434;27;20107;-69
2021/07/05 14:17:35;;;;;;;5.82;4.95;;;;;;;;;;5137114;27;20023;-70
2021/07/05 14:20:02;;;;;;;4.68;4.30;;;;;;;;;;5139544;27;20048;-70
2021/07/05 14:22:28;;;;;;;5.60;4.93;;;;;;;;;;5121576;27;20015;-69
2021/07/05 14:24:56;;;;;;;8.13;4.40;;;;;;;;;;5140003;27;20062;-69
2021/07/05 14:27:22;;;;;;;6.57;4.90;;;;;;;;;;5139321;27;20019;-71
2021/07/05 14:29:48;;;;;;;5.03;4.63;;;;;;;;;;5120371;27;20417;-71
2021/07/05 14:32:14;;;;;;;7.07;5.30;;;;;;;;;;5139597;27;20027;-71
2021/07/05 14:34:41;;;;;;;6.65;4.55;;;;;;;;;;5138368;27;20096;-71
2021/07/05 14:37:07;;;;;;;6.95;4.60;;;;;;;;;;5136177;27;20047;-71
2021/07/05 14:39:33;;;;;;;9.98;4.72;;;;;;;;;;5117188;27;20051;-72
2021/07/05 14:41:59;;;;;;;6.40;4.55;;;;;;;;;;5135857;27;20103;-72
2021/07/05 14:44:27;;;;;;;6.65;4.60;;;;;;;;;;5117526;27;20029;-72
2021/07/05 14:46:53;;;;;;;5.90;4.88;;;;;;;;;;5135621;27;20097;-69